createdAt,value
2018-02-11T00:01:02.200Z,90.36
2018-02-11T00:03:30.153Z,90.25
2018-02-11T00:05:58.095Z,90.38
2018-02-11T00:08:26.073Z,90.03
2018-02-11T00:10:54.036Z,90.35
2018-02-11T00:13:22.000Z,90.44
2018-02-11T00:15:49.936Z,90.63
2018-02-11T00:18:18.041Z,90.74
2018-02-11T00:20:46.423Z,90.73
2018-02-11T00:23:14.700Z,90.13
2018-02-11T00:25:42.648Z,90.57
2018-02-11T00:28:10.593Z,90.50
2018-02-11T00:30:38.586Z,90.82
2018-02-11T00:33:06.664Z,90.76
2018-02-11T00:35:34.652Z,90.70
2018-02-11T00:38:08.227Z,90.67
2018-02-11T00:40:36.191Z,90.60
2018-02-11T00:43:04.190Z,91.12
2018-02-11T00:45:32.402Z,91.27
2018-02-11T00:48:00.376Z,90.40
2018-02-11T00:50:28.385Z,90.97
2018-02-11T00:52:56.383Z,91.92
2018-02-11T00:55:24.353Z,91.35
2018-02-11T00:57:52.652Z,91.47
2018-02-11T01:00:21.428Z,91.63
2018-02-11T01:02:49.550Z,91.28
2018-02-11T01:05:17.835Z,91.72
2018-02-11T01:07:45.870Z,91.65
2018-02-11T01:10:13.979Z,92.11
2018-02-11T01:12:41.948Z,92.40
2018-02-11T01:15:10.126Z,92.63
2018-02-11T01:17:38.818Z,92.21
2018-02-11T01:20:07.189Z,91.67
2018-02-11T01:22:40.460Z,92.65
2018-02-11T01:25:09.589Z,92.40
2018-02-11T01:27:40.433Z,92.47
2018-02-11T01:30:09.455Z,92.52
2018-02-11T01:32:38.961Z,92.79
2018-02-11T01:35:12.773Z,92.93
2018-02-11T01:37:41.198Z,92.88
2018-02-11T01:40:10.159Z,92.43
2018-02-11T01:42:38.614Z,92.53
2018-02-11T01:45:06.757Z,92.95
2018-02-11T01:47:36.391Z,92.35
2018-02-11T01:50:16.386Z,92.86
2018-02-11T01:52:45.029Z,93.24
2018-02-11T01:55:14.257Z,93.44
2018-02-11T01:57:43.021Z,92.89
2018-02-11T02:00:11.262Z,93.04
2018-02-11T02:02:39.523Z,92.65
2018-02-11T02:05:07.816Z,93.08
2018-02-11T02:07:36.162Z,92.90
2018-02-11T02:10:04.368Z,92.82
2018-02-11T02:12:32.867Z,93.17
2018-02-11T02:15:01.047Z,93.62
2018-02-11T02:17:29.219Z,93.11
2018-02-11T02:19:57.382Z,92.96
2018-02-11T02:22:25.540Z,92.81
2018-02-11T02:24:53.765Z,92.76
2018-02-11T02:27:23.820Z,92.32
2018-02-11T02:29:52.121Z,92.30
2018-02-11T02:32:21.307Z,92.68
2018-02-11T02:34:49.680Z,92.33
2018-02-11T02:37:18.497Z,92.46
2018-02-11T02:39:46.662Z,91.88
2018-02-11T02:42:14.672Z,92.37
2018-02-11T02:44:42.926Z,92.17
2018-02-11T02:47:10.954Z,92.31
2018-02-11T02:49:39.051Z,91.80
2018-02-11T02:52:07.216Z,91.90
2018-02-11T02:54:35.529Z,92.14
2018-02-11T02:57:03.889Z,92.03
2018-02-11T02:59:32.184Z,91.90
2018-02-11T03:02:00.527Z,92.29
2018-02-11T03:04:28.698Z,92.06
2018-02-11T03:06:57.057Z,92.20
2018-02-11T03:09:25.393Z,92.23
2018-02-11T03:11:53.491Z,92.71
2018-02-11T03:14:21.948Z,91.92
2018-02-11T03:16:50.256Z,92.22
2018-02-11T03:19:18.755Z,92.40
2018-02-11T03:21:47.317Z,92.58
2018-02-11T03:24:16.863Z,92.88
2018-02-11T03:26:45.032Z,92.80
2018-02-11T03:29:13.475Z,92.07
2018-02-11T03:31:41.749Z,92.46
2018-02-11T03:34:09.890Z,92.24
2018-02-11T03:36:38.166Z,92.69
2018-02-11T03:39:06.687Z,93.14
2018-02-11T03:41:35.096Z,92.26
2018-02-11T03:44:03.130Z,92.63
2018-02-11T03:46:31.199Z,92.05
2018-02-11T03:48:59.728Z,92.29
2018-02-11T03:51:27.810Z,92.23
2018-02-11T03:53:57.086Z,92.69
2018-02-11T03:56:25.977Z,92.64
2018-02-11T03:58:54.534Z,92.30
2018-02-11T04:01:22.837Z,92.43
2018-02-11T04:03:50.983Z,92.33
2018-02-11T04:06:19.180Z,92.80
2018-02-11T04:08:47.596Z,93.04
2018-02-11T04:11:15.772Z,92.82
2018-02-11T04:13:43.788Z,92.47
2018-02-11T04:16:11.802Z,92.68
2018-02-11T04:18:39.831Z,92.59
2018-02-11T04:21:07.827Z,93.13
2018-02-11T04:23:35.889Z,92.92
2018-02-11T04:26:03.951Z,92.91
2018-02-11T04:28:32.125Z,93.36
2018-02-11T04:31:00.138Z,93.30
2018-02-11T04:33:28.139Z,92.86
2018-02-11T04:35:56.258Z,92.62
2018-02-11T04:38:24.304Z,92.66
2018-02-11T04:40:52.289Z,93.19
2018-02-11T04:43:20.285Z,93.33
2018-02-11T04:45:48.291Z,92.69
2018-02-11T04:48:16.347Z,92.71
2018-02-11T04:50:44.352Z,92.72
2018-02-11T04:53:12.363Z,92.53
2018-02-11T04:55:40.724Z,92.36
2018-02-11T04:58:08.920Z,92.10
2018-02-11T05:00:37.136Z,92.90
2018-02-11T05:03:05.151Z,92.30
2018-02-11T05:05:33.144Z,92.54
2018-02-11T05:08:01.210Z,92.59
2018-02-11T05:10:29.228Z,91.78
2018-02-11T05:12:57.265Z,91.95
2018-02-11T05:15:25.306Z,92.26
2018-02-11T05:17:53.340Z,92.46
2018-02-11T05:20:21.336Z,92.41
2018-02-11T05:22:49.383Z,92.17
2018-02-11T05:25:17.372Z,92.02
2018-02-11T05:27:45.392Z,92.33
2018-02-11T05:30:13.385Z,92.14
2018-02-11T05:32:41.428Z,91.95
2018-02-11T05:35:09.463Z,92.02
2018-02-11T05:37:37.667Z,92.11
2018-02-11T05:40:05.781Z,92.01
2018-02-11T05:42:33.833Z,92.49
2018-02-11T05:45:01.845Z,92.39
2018-02-11T05:47:29.868Z,92.28
2018-02-11T05:49:57.884Z,91.92
2018-02-11T05:52:25.894Z,92.14
2018-02-11T05:54:54.081Z,92.24
2018-02-11T05:57:22.454Z,92.51
2018-02-11T05:59:50.496Z,92.35
2018-02-11T06:02:18.504Z,92.56
2018-02-11T06:04:46.567Z,92.50
2018-02-11T06:07:14.620Z,92.43
2018-02-11T06:09:42.607Z,92.37
2018-02-11T06:12:10.677Z,92.24
2018-02-11T06:14:38.752Z,92.22
2018-02-11T06:17:06.789Z,91.91
2018-02-11T06:19:34.788Z,91.69
2018-02-11T06:22:03.651Z,91.85
2018-02-11T06:24:31.647Z,91.63
2018-02-11T06:26:59.682Z,92.24
2018-02-11T06:29:27.729Z,92.31
2018-02-11T06:31:55.774Z,92.12
2018-02-11T06:34:23.816Z,92.17
2018-02-11T06:36:51.925Z,92.59
2018-02-11T06:39:19.958Z,92.43
2018-02-11T06:41:47.958Z,92.50
2018-02-11T06:44:15.993Z,92.06
2018-02-11T06:46:44.031Z,92.51
2018-02-11T06:49:12.040Z,92.27
2018-02-11T06:51:40.048Z,92.69
2018-02-11T06:54:08.045Z,92.45
2018-02-11T06:56:36.064Z,92.27
2018-02-11T06:59:04.101Z,92.31
2018-02-11T07:01:32.140Z,92.27
2018-02-11T07:04:00.224Z,92.13
2018-02-11T07:06:28.229Z,92.40
2018-02-11T07:08:56.428Z,92.18
2018-02-11T07:11:24.483Z,91.94
2018-02-11T07:13:52.866Z,92.01
2018-02-11T07:16:20.921Z,91.86
2018-02-11T07:18:49.050Z,92.17
2018-02-11T07:21:17.114Z,92.13
2018-02-11T07:23:45.165Z,92.27
2018-02-11T07:26:13.215Z,92.50
2018-02-11T07:28:41.360Z,92.40
2018-02-11T07:31:09.477Z,92.33
2018-02-11T07:33:38.238Z,91.97
2018-02-11T07:36:06.392Z,91.38
2018-02-11T07:38:34.480Z,91.72
2018-02-11T07:41:02.568Z,91.73
2018-02-11T07:43:30.592Z,91.87
2018-02-11T07:45:58.858Z,91.41
2018-02-11T07:48:27.686Z,91.09
2018-02-11T07:50:55.717Z,91.19
2018-02-11T07:53:23.751Z,90.50
2018-02-11T07:55:51.840Z,90.62
2018-02-11T07:58:19.897Z,90.30
2018-02-11T08:00:48.606Z,90.18
2018-02-11T08:03:16.677Z,90.19
2018-02-11T08:05:45.420Z,89.91
2018-02-11T08:08:13.552Z,89.79
2018-02-11T08:10:42.416Z,89.91
2018-02-11T08:13:10.492Z,89.68
2018-02-11T08:15:38.638Z,89.70
2018-02-11T08:18:06.747Z,89.26
2018-02-11T08:20:34.769Z,88.88
2018-02-11T08:23:02.843Z,92.32
2018-02-11T08:25:30.869Z,89.44
2018-02-11T08:27:58.967Z,87.33
2018-02-11T08:30:27.061Z,87.68
2018-02-11T08:32:55.170Z,87.39
2018-02-11T08:35:23.217Z,86.73
2018-02-11T08:37:51.258Z,87.41
2018-02-11T08:40:19.336Z,87.39
2018-02-11T08:42:47.418Z,87.18
2018-02-11T08:45:15.651Z,86.58
2018-02-11T08:47:43.998Z,86.42
2018-02-11T08:50:12.264Z,85.64
2018-02-11T08:52:40.467Z,85.13
2018-02-11T08:55:09.631Z,84.76
2018-02-11T08:57:37.860Z,84.74
2018-02-11T09:00:06.426Z,84.98
2018-02-11T09:02:34.816Z,84.44
2018-02-11T09:05:03.298Z,84.08
2018-02-11T09:07:31.477Z,84.19
2018-02-11T09:09:59.581Z,84.03
2018-02-11T09:12:27.634Z,83.61
2018-02-11T09:14:55.704Z,83.52
2018-02-11T09:17:23.791Z,83.30
2018-02-11T09:19:51.911Z,83.58
2018-02-11T09:22:20.029Z,83.74
2018-02-11T09:24:48.465Z,83.78
2018-02-11T09:27:16.590Z,84.14
2018-02-11T09:29:44.867Z,83.84
2018-02-11T09:32:13.006Z,83.74
2018-02-11T09:34:41.044Z,83.95
2018-02-11T09:37:09.084Z,83.79
2018-02-11T09:39:37.280Z,83.85
2018-02-11T09:42:05.773Z,83.44
2018-02-11T09:44:33.919Z,83.09
2018-02-11T09:47:02.087Z,82.83
2018-02-11T09:49:32.189Z,83.10
2018-02-11T09:52:01.916Z,82.71
2018-02-11T09:54:30.111Z,82.81
2018-02-11T09:57:04.790Z,82.62
2018-02-11T09:59:35.014Z,82.20
2018-02-11T10:02:04.258Z,81.82
2018-02-11T10:04:32.905Z,82.23
2018-02-11T10:07:01.075Z,82.04
2018-02-11T10:09:29.549Z,82.37
2018-02-11T10:11:58.882Z,81.72
2018-02-11T10:14:45.976Z,81.62
2018-02-11T10:17:14.522Z,81.62
2018-02-11T10:19:42.524Z,81.43
2018-02-11T10:22:10.732Z,81.07
2018-02-11T10:24:38.870Z,81.07
2018-02-11T10:27:07.035Z,80.77
2018-02-11T10:29:35.357Z,80.65
2018-02-11T10:32:03.805Z,80.88
2018-02-11T10:34:31.867Z,81.10
2018-02-11T10:36:59.942Z,81.58
2018-02-11T10:39:28.020Z,82.62
2018-02-11T10:41:56.060Z,83.69
2018-02-11T10:44:24.092Z,84.77
2018-02-11T10:46:52.192Z,86.17
2018-02-11T10:49:20.193Z,86.76
2018-02-11T10:51:48.212Z,87.66
2018-02-11T10:54:16.282Z,88.26
2018-02-11T10:56:45.184Z,89.39
2018-02-11T10:59:13.564Z,89.87
2018-02-11T11:01:42.260Z,91.43
2018-02-11T11:04:10.350Z,90.44
2018-02-11T11:06:38.396Z,90.08
2018-02-11T11:09:06.662Z,89.86
2018-02-11T11:11:34.717Z,89.97
2018-02-11T11:14:02.790Z,89.61
2018-02-11T11:16:31.381Z,90.93
2018-02-11T11:18:59.753Z,91.53
2018-02-11T11:21:27.766Z,91.75
2018-02-11T11:23:55.786Z,92.44
2018-02-11T11:26:23.838Z,93.30
2018-02-11T11:28:51.998Z,92.94
2018-02-11T11:31:20.042Z,93.30
2018-02-11T11:33:48.036Z,93.64
2018-02-11T11:36:16.066Z,93.95
2018-02-11T11:38:44.080Z,94.23
2018-02-11T11:41:12.104Z,94.11
2018-02-11T11:43:40.841Z,94.24
2018-02-11T11:46:08.869Z,94.10
2018-02-11T11:48:36.988Z,93.98
2018-02-11T11:51:05.105Z,94.03
2018-02-11T11:53:33.124Z,94.19
2018-02-11T11:56:01.200Z,94.11
2018-02-11T11:58:29.259Z,93.83
2018-02-11T12:00:57.425Z,94.10
2018-02-11T12:03:25.451Z,94.18
2018-02-11T12:05:53.746Z,94.49
2018-02-11T12:08:21.795Z,94.89
2018-02-11T12:10:49.855Z,94.99
2018-02-11T12:13:17.906Z,95.39
2018-02-11T12:15:46.204Z,95.43
2018-02-11T12:18:14.417Z,95.68
2018-02-11T12:20:42.483Z,95.56
2018-02-11T12:23:10.511Z,95.55
2018-02-11T12:25:38.535Z,95.46
2018-02-11T12:28:06.567Z,96.20
2018-02-11T12:30:34.898Z,96.07
2018-02-11T12:33:03.083Z,96.10
2018-02-11T12:35:31.126Z,96.18
2018-02-11T12:37:59.249Z,96.19
2018-02-11T12:40:27.270Z,96.75
2018-02-11T12:42:55.331Z,96.14
2018-02-11T12:45:23.366Z,96.53
2018-02-11T12:47:52.116Z,96.09
2018-02-11T12:50:20.158Z,96.06
2018-02-11T12:52:49.132Z,96.29
2018-02-11T12:55:17.319Z,95.62
2018-02-11T12:57:45.354Z,95.26
2018-02-11T13:00:13.369Z,95.48
2018-02-11T13:05:20.922Z,94.88
2018-02-11T13:07:49.302Z,94.91
2018-02-11T13:10:17.705Z,94.94
2018-02-11T13:12:46.040Z,94.76
2018-02-11T13:15:14.496Z,94.95
2018-02-11T13:17:42.815Z,94.78
2018-02-11T13:20:10.945Z,94.85
2018-02-11T13:22:39.042Z,95.00
2018-02-11T13:25:07.089Z,94.88
2018-02-11T13:27:35.178Z,95.03
2018-02-11T13:30:03.210Z,95.36
2018-02-11T13:32:31.407Z,95.04
2018-02-11T13:34:59.596Z,94.73
2018-02-11T13:37:29.436Z,93.90
2018-02-11T13:39:57.461Z,94.12
2018-02-11T13:42:25.532Z,94.84
2018-02-11T13:44:53.812Z,93.89
2018-02-11T13:47:21.948Z,92.79
2018-02-11T13:49:49.992Z,92.97
2018-02-11T13:52:18.026Z,93.25
2018-02-11T13:54:46.060Z,93.61
2018-02-11T13:57:14.232Z,94.33
2018-02-11T13:59:42.253Z,94.15
2018-02-11T14:02:10.251Z,93.82
2018-02-11T14:04:38.488Z,93.91
2018-02-11T14:07:06.605Z,93.82
2018-02-11T14:09:34.760Z,94.13
2018-02-11T14:12:02.869Z,94.27
2018-02-11T14:14:30.912Z,94.25
2018-02-11T14:16:59.003Z,94.43
2018-02-11T14:19:27.069Z,94.94
2018-02-11T14:21:55.111Z,93.78
2018-02-11T14:24:23.952Z,93.76
2018-02-11T14:26:52.379Z,93.45
2018-02-11T14:29:20.520Z,93.59
2018-02-11T14:31:48.591Z,93.70
2018-02-11T14:34:16.722Z,93.68
2018-02-11T14:36:44.817Z,94.34
2018-02-11T14:39:12.860Z,92.76
2018-02-11T14:41:41.003Z,92.30
2018-02-11T14:44:09.799Z,92.46
2018-02-11T14:46:37.785Z,92.65
2018-02-11T14:49:05.861Z,92.43
2018-02-11T14:51:34.347Z,92.47
2018-02-11T14:54:02.410Z,92.87
2018-02-11T14:56:30.524Z,93.10
2018-02-11T14:58:58.812Z,92.84
2018-02-11T15:01:26.776Z,92.73
2018-02-11T15:03:54.757Z,92.60
2018-02-11T15:06:22.724Z,92.79
2018-02-11T15:08:50.738Z,93.33
2018-02-11T15:11:18.776Z,93.37
2018-02-11T15:13:46.808Z,93.24
2018-02-11T15:16:14.920Z,93.24
2018-02-11T15:18:42.908Z,92.93
2018-02-11T15:21:10.902Z,93.21
2018-02-11T15:23:38.861Z,92.67
2018-02-11T15:26:06.933Z,93.18
2018-02-11T15:28:34.903Z,92.92
2018-02-11T15:31:02.872Z,92.99
2018-02-11T15:33:30.849Z,92.72
2018-02-11T15:35:58.888Z,93.19
2018-02-11T15:38:26.931Z,93.01
2018-02-11T15:40:54.938Z,93.11
2018-02-11T15:43:22.975Z,92.21
2018-02-11T15:45:51.070Z,92.64
2018-02-11T15:48:19.089Z,92.53
2018-02-11T15:50:47.069Z,92.72
2018-02-11T15:53:15.039Z,92.89
2018-02-11T15:55:43.065Z,92.27
2018-02-11T15:58:11.099Z,92.95
2018-02-11T16:00:39.117Z,92.79
2018-02-11T16:03:07.119Z,92.48
2018-02-11T16:05:35.096Z,92.05
2018-02-11T16:08:03.155Z,92.77
2018-02-11T16:10:31.309Z,92.45
2018-02-11T16:12:59.892Z,92.46
2018-02-11T16:15:27.977Z,92.54
2018-02-11T16:17:55.949Z,92.58
2018-02-11T16:20:23.951Z,92.46
2018-02-11T16:22:51.972Z,92.45
2018-02-11T16:25:19.957Z,91.92
2018-02-11T16:27:47.988Z,92.24
2018-02-11T16:30:16.054Z,92.82
2018-02-11T16:32:44.040Z,92.48
2018-02-11T16:35:12.021Z,92.67
2018-02-11T16:37:40.112Z,92.84
2018-02-11T16:40:08.086Z,92.89
2018-02-11T16:42:36.252Z,93.05
2018-02-11T16:45:04.981Z,93.33
2018-02-11T16:47:32.992Z,93.14
2018-02-11T16:50:01.013Z,92.86
2018-02-11T16:52:28.981Z,93.35
2018-02-11T16:54:57.033Z,93.06
2018-02-11T16:57:25.160Z,93.13
2018-02-11T16:59:53.896Z,93.52
2018-02-11T17:02:21.864Z,94.10
2018-02-11T17:04:49.885Z,94.49
2018-02-11T17:07:18.053Z,93.98
2018-02-11T17:09:46.066Z,94.56
2018-02-11T17:12:14.035Z,94.62
2018-02-11T17:14:42.016Z,94.78
2018-02-11T17:17:09.989Z,94.51
2018-02-11T17:19:38.000Z,94.43
2018-02-11T17:22:05.982Z,94.25
2018-02-11T17:24:33.969Z,93.80
2018-02-11T17:27:01.974Z,94.09
2018-02-11T17:29:30.014Z,93.86
2018-02-11T17:31:58.066Z,94.44
2018-02-11T17:34:26.029Z,94.85
2018-02-11T17:36:54.100Z,94.63
2018-02-11T17:39:22.095Z,94.31
2018-02-11T17:41:50.089Z,94.25
2018-02-11T17:44:18.080Z,94.69
2018-02-11T17:46:46.411Z,93.88
2018-02-11T17:49:14.396Z,94.35
2018-02-11T17:51:42.724Z,94.17
2018-02-11T17:54:10.725Z,94.38
2018-02-11T17:56:38.744Z,94.12
2018-02-11T17:59:06.737Z,94.07
2018-02-11T18:01:34.712Z,94.33
2018-02-11T18:04:02.970Z,94.80
2018-02-11T18:06:30.963Z,94.14
2018-02-11T18:08:59.029Z,93.83
2018-02-11T18:11:27.146Z,93.58
2018-02-11T18:13:55.447Z,93.57
2018-02-11T18:16:23.717Z,93.69
2018-02-11T18:18:51.742Z,93.91
2018-02-11T18:21:20.034Z,93.91
2018-02-11T18:23:48.101Z,93.35
2018-02-11T18:26:16.996Z,94.04
2018-02-11T18:28:46.136Z,94.17
2018-02-11T18:31:14.385Z,93.94
2018-02-11T18:33:42.433Z,94.29
2018-02-11T18:36:10.716Z,94.40
2018-02-11T18:38:38.728Z,94.08
2018-02-11T18:41:06.935Z,93.78
2018-02-11T18:43:34.938Z,94.05
2018-02-11T18:46:02.969Z,93.52
2018-02-11T18:48:31.089Z,93.30
2018-02-11T18:50:59.099Z,93.56
2018-02-11T18:53:27.065Z,94.02
2018-02-11T18:55:55.610Z,94.07
2018-02-11T18:58:23.750Z,94.43
2018-02-11T19:00:51.739Z,94.25
2018-02-11T19:03:20.212Z,93.82
2018-02-11T19:05:48.188Z,93.84
2018-02-11T19:08:16.184Z,94.12
2018-02-11T19:10:44.249Z,93.66
2018-02-11T19:13:12.415Z,91.79
2018-02-11T19:15:40.509Z,92.19
2018-02-11T19:18:08.487Z,92.03
2018-02-11T19:20:36.477Z,92.88
2018-02-11T19:23:04.498Z,93.17
2018-02-11T19:25:32.573Z,92.79
2018-02-11T19:28:00.969Z,93.11
2018-02-11T19:30:29.603Z,92.18
2018-02-11T19:32:57.636Z,92.62
2018-02-11T19:35:25.607Z,92.72
2018-02-11T19:37:53.652Z,92.05
2018-02-11T19:40:21.777Z,91.92
2018-02-11T19:42:49.931Z,92.22
2018-02-11T19:45:17.917Z,91.69
2018-02-11T19:47:45.978Z,92.13
2018-02-11T19:50:14.011Z,91.94
2018-02-11T19:52:42.590Z,92.20
2018-02-11T19:55:10.627Z,92.25
2018-02-11T19:57:38.697Z,92.35
2018-02-11T20:00:06.836Z,92.08
2018-02-11T20:02:34.821Z,91.97
2018-02-11T20:05:02.961Z,91.42
2018-02-11T20:07:31.124Z,91.47
2018-02-11T20:09:59.200Z,91.36
2018-02-11T20:12:27.397Z,91.40
2018-02-11T20:14:55.788Z,91.63
2018-02-11T20:17:23.923Z,90.99
2018-02-11T20:19:51.922Z,90.40
2018-02-11T20:22:19.914Z,91.01
2018-02-11T20:24:48.083Z,90.51
2018-02-11T20:27:16.070Z,90.41
2018-02-11T20:29:44.055Z,90.47
2018-02-11T20:32:12.149Z,90.19
2018-02-11T20:34:40.128Z,89.02
2018-02-11T20:37:08.141Z,89.70
2018-02-11T20:39:36.417Z,89.66
2018-02-11T20:42:04.854Z,89.73
2018-02-11T20:44:32.860Z,89.90
2018-02-11T20:47:00.879Z,90.32
2018-02-11T20:49:29.157Z,89.87
2018-02-11T20:51:57.150Z,90.16
2018-02-11T20:54:25.156Z,89.94
2018-02-11T20:56:53.161Z,88.93
2018-02-11T20:59:21.242Z,89.24
2018-02-11T21:01:49.236Z,88.82
2018-02-11T21:04:20.140Z,88.58
2018-02-11T21:06:48.120Z,88.60
2018-02-11T21:09:17.245Z,88.97
2018-02-11T21:11:45.271Z,87.36
2018-02-11T21:14:13.392Z,88.31
2018-02-11T21:16:41.360Z,88.79
2018-02-11T21:19:10.005Z,88.70
2018-02-11T21:21:38.052Z,88.02
2018-02-11T21:24:06.044Z,87.99
2018-02-11T21:26:34.024Z,87.83
2018-02-11T21:29:02.010Z,87.88
2018-02-11T21:31:30.067Z,88.20
2018-02-11T21:33:58.076Z,88.56
2018-02-11T21:36:26.181Z,88.86
2018-02-11T21:38:54.353Z,88.63
2018-02-11T21:41:22.345Z,88.08
2018-02-11T21:43:51.136Z,88.12
2018-02-11T21:46:19.193Z,88.18
2018-02-11T21:48:47.187Z,87.80
2018-02-11T21:51:15.397Z,88.16
2018-02-11T21:53:43.456Z,87.84
2018-02-11T21:56:11.997Z,87.78
2018-02-11T21:58:40.332Z,87.32
2018-02-11T22:01:08.567Z,87.42
2018-02-11T22:03:36.562Z,87.48
2018-02-11T22:06:04.565Z,87.94
2018-02-11T22:08:32.649Z,88.11
2018-02-11T22:11:00.818Z,87.31
2018-02-11T22:13:28.793Z,87.95
2018-02-11T22:15:56.808Z,87.79
2018-02-11T22:18:24.884Z,87.99
2018-02-11T22:20:53.705Z,87.83
2018-02-11T22:23:21.745Z,87.77
2018-02-11T22:25:49.751Z,88.12
2018-02-11T22:28:17.821Z,87.83
2018-02-11T22:30:46.332Z,88.00
2018-02-11T22:33:14.304Z,87.96
2018-02-11T22:35:42.332Z,87.43
2018-02-11T22:38:10.430Z,87.15
2018-02-11T22:40:38.474Z,87.45
2018-02-11T22:43:06.549Z,87.70
2018-02-11T22:45:34.940Z,86.93
2018-02-11T22:48:02.985Z,87.44
2018-02-11T22:50:31.024Z,87.48
2018-02-11T22:52:59.213Z,87.44
2018-02-11T22:55:27.184Z,87.37
2018-02-11T22:57:55.346Z,87.41
2018-02-11T23:00:23.384Z,86.92
2018-02-11T23:05:19.454Z,87.15
2018-02-11T23:07:47.522Z,86.82
2018-02-11T23:10:15.495Z,86.43
2018-02-11T23:12:43.467Z,86.13
2018-02-11T23:15:11.600Z,85.67
2018-02-11T23:17:39.628Z,86.39
2018-02-11T23:20:07.669Z,85.60
2018-02-11T23:22:35.655Z,85.88
2018-02-11T23:25:03.722Z,84.99
2018-02-11T23:27:32.112Z,85.19
2018-02-11T23:30:00.176Z,85.33
2018-02-11T23:32:28.160Z,85.55
2018-02-11T23:34:56.165Z,85.12
2018-02-11T23:37:24.398Z,85.00
2018-02-11T23:39:52.397Z,84.56
2018-02-11T23:42:20.427Z,85.35
2018-02-11T23:44:48.517Z,85.55
2018-02-11T23:47:16.501Z,85.19
2018-02-11T23:49:44.481Z,84.61
2018-02-11T23:52:12.476Z,85.39
2018-02-11T23:54:40.448Z,84.83
2018-02-11T23:57:08.464Z,85.32
2018-02-11T23:59:36.507Z,85.62
